sensor_id;sensor_type;location;lat;lon;timestamp;pressure;altitude;pressure_sealevel;temperature;humidity
54038;BME280;39954;48.844;9.726;2023-08-12T00:00:26;96413.81;;;16.84;100.00
54038;BME280;39954;48.844;9.726;2023-08-12T00:01:31;96410.44;;;16.82;100.00
54038;BME280;39954;48.844;9.726;2023-08-12T00:02:34;96408.78;;;16.81;100.00
54038;BME280;39954;48.844;9.726;2023-08-12T00:03:38;96413.06;;;16.82;100.00
54038;BME280;39954;48.844;9.726;2023-08-12T00:04:41;96407.09;;;16.80;100.00
54038;BME280;39954;48.844;9.726;2023-08-12T00:05:45;96414.25;;;16.77;100.00
54038;BME280;39954;48.844;9.726;2023-08-12T00:06:48;96403.84;;;16.76;100.00
54038;BME280;39954;48.844;9.726;2023-08-12T00:07:52;96403.94;;;16.74;100.00
54038;BME280;39954;48.844;9.726;2023-08-12T00:08:57;96405.66;;;16.75;100.00
54038;BME280;39954;48.844;9.726;2023-08-12T00:10:03;96402.09;;;16.76;100.00
54038;BME280;39954;48.844;9.726;2023-08-12T00:11:06;96400.41;;;16.75;100.00
54038;BME280;39954;48.844;9.726;2023-08-12T00:12:11;96403.13;;;16.74;100.00
54038;BME280;39954;48.844;9.726;2023-08-12T00:13:13;96398.84;;;16.73;100.00
54038;BME280;39954;48.844;9.726;2023-08-12T00:14:19;96404.19;;;16.71;100.00
54038;BME280;39954;48.844;9.726;2023-08-12T00:15:22;96401.69;;;16.70;100.00
54038;BME280;39954;48.844;9.726;2023-08-12T00:16:27;96405.25;;;16.69;100.00
54038;BME280;39954;48.844;9.726;2023-08-12T00:17:30;96402.75;;;16.67;100.00
54038;BME280;39954;48.844;9.726;2023-08-12T00:18:35;96402.03;;;16.65;100.00
54038;BME280;39954;48.844;9.726;2023-08-12T00:19:38;96407.41;;;16.64;100.00
54038;BME280;39954;48.844;9.726;2023-08-12T00:20:44;96398.00;;;16.61;100.00
54038;BME280;39954;48.844;9.726;2023-08-12T00:21:46;96402.38;;;16.61;100.00
54038;BME280;39954;48.844;9.726;2023-08-12T00:22:51;96394.63;;;16.59;100.00
54038;BME280;39954;48.844;9.726;2023-08-12T00:23:53;96399.16;;;16.57;100.00
54038;BME280;39954;48.844;9.726;2023-08-12T00:25:00;96394.88;;;16.56;100.00
54038;BME280;39954;48.844;9.726;2023-08-12T00:26:02;96400.94;;;16.56;100.00
54038;BME280;39954;48.844;9.726;2023-08-12T00:27:07;96405.38;;;16.56;100.00
54038;BME280;39954;48.844;9.726;2023-08-12T00:28:11;96400.13;;;16.56;100.00
54038;BME280;39954;48.844;9.726;2023-08-12T00:29:16;96390.47;;;16.56;100.00
54038;BME280;39954;48.844;9.726;2023-08-12T00:30:18;96396.53;;;16.57;100.00
54038;BME280;39954;48.844;9.726;2023-08-12T00:31:23;96392.25;;;16.56;100.00
54038;BME280;39954;48.844;9.726;2023-08-12T00:32:25;96391.41;;;16.55;100.00
54038;BME280;39954;48.844;9.726;2023-08-12T00:33:27;96394.75;;;16.58;100.00
54038;BME280;39954;48.844;9.726;2023-08-12T00:34:32;96396.31;;;16.60;100.00
54038;BME280;39954;48.844;9.726;2023-08-12T00:35:34;96392.03;;;16.59;100.00
54038;BME280;39954;48.844;9.726;2023-08-12T00:36:39;96399.06;;;16.59;100.00
54038;BME280;39954;48.844;9.726;2023-08-12T00:37:41;96399.88;;;16.59;100.00
54038;BME280;39954;48.844;9.726;2023-08-12T00:38:46;96389.41;;;16.59;100.00
54038;BME280;39954;48.844;9.726;2023-08-12T00:39:48;96392.97;;;16.58;100.00
54038;BME280;39954;48.844;9.726;2023-08-12T00:40:56;96398.22;;;16.58;100.00
54038;BME280;39954;48.844;9.726;2023-08-12T00:41:59;96396.53;;;16.57;100.00
54038;BME280;39954;48.844;9.726;2023-08-12T00:43:04;96392.25;;;16.56;100.00
54038;BME280;39954;48.844;9.726;2023-08-12T00:44:07;96387.94;;;16.55;100.00
54038;BME280;39954;48.844;9.726;2023-08-12T00:45:11;96401.31;;;16.63;100.00
54038;BME280;39954;48.844;9.726;2023-08-12T00:46:15;96390.00;;;16.63;100.00
54038;BME280;39954;48.844;9.726;2023-08-12T00:47:21;96391.06;;;16.71;100.00
54038;BME280;39954;48.844;9.726;2023-08-12T00:48:23;96394.69;;;16.82;100.00
54038;BME280;39954;48.844;9.726;2023-08-12T00:49:26;96380.63;;;16.83;100.00
54038;BME280;39954;48.844;9.726;2023-08-12T00:50:32;96383.97;;;16.85;100.00
54038;BME280;39954;48.844;9.726;2023-08-12T00:51:34;96379.69;;;16.84;100.00
54038;BME280;39954;48.844;9.726;2023-08-12T00:52:40;96385.63;;;16.86;100.00
54038;BME280;39954;48.844;9.726;2023-08-12T00:53:42;96380.28;;;16.87;100.00
54038;BME280;39954;48.844;9.726;2023-08-12T00:54:47;96387.31;;;16.87;100.00
54038;BME280;39954;48.844;9.726;2023-08-12T00:55:49;96379.44;;;16.87;100.00
54038;BME280;39954;48.844;9.726;2023-08-12T00:56:57;96375.97;;;16.86;100.00
54038;BME280;39954;48.844;9.726;2023-08-12T00:57:59;96375.97;;;16.86;100.00
54038;BME280;39954;48.844;9.726;2023-08-12T00:59:07;96375.13;;;16.86;100.00
54038;BME280;39954;48.844;9.726;2023-08-12T01:00:11;96371.56;;;16.87;100.00
54038;BME280;39954;48.844;9.726;2023-08-12T01:01:16;96370.72;;;16.86;100.00
54038;BME280;39954;48.844;9.726;2023-08-12T01:02:19;96366.31;;;16.87;100.00
54038;BME280;39954;48.844;9.726;2023-08-12T01:03:25;96367.16;;;16.87;100.00
54038;BME280;39954;48.844;9.726;2023-08-12T01:04:27;96371.56;;;16.87;100.00
54038;BME280;39954;48.844;9.726;2023-08-12T01:05:33;96365.47;;;16.86;100.00
54038;BME280;39954;48.844;9.726;2023-08-12T01:06:35;96362.13;;;16.84;100.00
54038;BME280;39954;48.844;9.726;2023-08-12T01:07:40;96363.94;;;16.84;100.00
54038;BME280;39954;48.844;9.726;2023-08-12T01:08:42;96361.31;;;16.84;100.00
54038;BME280;39954;48.844;9.726;2023-08-12T01:09:47;96356.88;;;16.84;100.00
54038;BME280;39954;48.844;9.726;2023-08-12T01:10:58;96357.00;;;16.83;100.00
54038;BME280;39954;48.844;9.726;2023-08-12T01:12:13;96357.97;;;16.82;100.00
54038;BME280;39954;48.844;9.726;2023-08-12T01:13:25;96357.97;;;16.82;100.00
54038;BME280;39954;48.844;9.726;2023-08-12T01:14:39;96351.06;;;16.81;100.00
54038;BME280;39954;48.844;9.726;2023-08-12T01:15:44;96357.13;;;16.81;100.00
54038;BME280;39954;48.844;9.726;2023-08-12T01:16:52;96352.94;;;16.78;100.00
54038;BME280;39954;48.844;9.726;2023-08-12T01:17:57;96356.50;;;16.77;100.00
54038;BME280;39954;48.844;9.726;2023-08-12T01:19:06;96349.59;;;16.76;100.00
54038;BME280;39954;48.844;9.726;2023-08-12T01:20:11;96351.47;;;16.74;100.00
54038;BME280;39954;48.844;9.726;2023-08-12T01:21:18;96354.09;;;16.74;100.00
54038;BME280;39954;48.844;9.726;2023-08-12T01:22:23;96352.53;;;16.72;100.00
54038;BME280;39954;48.844;9.726;2023-08-12T01:23:33;96351.00;;;16.69;100.00
54038;BME280;39954;48.844;9.726;2023-08-12T01:24:36;96354.47;;;16.70;100.00
54038;BME280;39954;48.844;9.726;2023-08-12T01:25:41;96353.00;;;16.66;100.00
54038;BME280;39954;48.844;9.726;2023-08-12T01:26:43;96356.59;;;16.65;100.00
54038;BME280;39954;48.844;9.726;2023-08-12T01:27:48;96346.34;;;16.62;100.00
54038;BME280;39954;48.844;9.726;2023-08-12T01:28:50;96345.53;;;16.61;100.00
54038;BME280;39954;48.844;9.726;2023-08-12T01:29:55;96338.72;;;16.59;100.00
54038;BME280;39954;48.844;9.726;2023-08-12T01:31:02;96337.03;;;16.58;100.00
54038;BME280;39954;48.844;9.726;2023-08-12T01:32:12;96338.81;;;16.57;100.00
54038;BME280;39954;48.844;9.726;2023-08-12T01:33:21;96337.16;;;16.56;100.00
54038;BME280;39954;48.844;9.726;2023-08-12T01:34:31;96338.81;;;16.57;100.00
54038;BME280;39954;48.844;9.726;2023-08-12T01:35:40;96341.44;;;16.57;100.00
54038;BME280;39954;48.844;9.726;2023-08-12T01:36:50;96326.66;;;16.56;100.00
54038;BME280;39954;48.844;9.726;2023-08-12T01:37:57;96333.56;;;16.57;100.00
54038;BME280;39954;48.844;9.726;2023-08-12T01:39:06;96331.91;;;16.56;100.00
54038;BME280;39954;48.844;9.726;2023-08-12T01:40:11;96336.34;;;16.55;100.00
54038;BME280;39954;48.844;9.726;2023-08-12T01:41:20;96331.09;;;16.55;100.00
54038;BME280;39954;48.844;9.726;2023-08-12T01:42:24;96339.06;;;16.54;100.00
54038;BME280;39954;48.844;9.726;2023-08-12T01:43:29;96332.97;;;16.53;100.00
54038;BME280;39954;48.844;9.726;2023-08-12T01:44:32;96341.81;;;16.52;100.00
54038;BME280;39954;48.844;9.726;2023-08-12T01:45:37;96339.28;;;16.51;100.00
54038;BME280;39954;48.844;9.726;2023-08-12T01:46:39;96343.56;;;16.52;100.00
54038;BME280;39954;48.844;9.726;2023-08-12T01:47:46;96333.22;;;16.50;100.00
54038;BME280;39954;48.844;9.726;2023-08-12T01:48:52;96342.88;;;16.50;100.00
54038;BME280;39954;48.844;9.726;2023-08-12T01:49:56;96334.28;;;16.48;100.00
54038;BME280;39954;48.844;9.726;2023-08-12T01:50:59;96334.28;;;16.48;100.00
54038;BME280;39954;48.844;9.726;2023-08-12T01:52:05;96332.63;;;16.47;100.00
54038;BME280;39954;48.844;9.726;2023-08-12T01:53:07;96332.63;;;16.47;100.00
54038;BME280;39954;48.844;9.726;2023-08-12T01:54:14;96332.63;;;16.47;100.00
54038;BME280;39954;48.844;9.726;2023-08-12T01:55:16;96334.38;;;16.46;100.00
54038;BME280;39954;48.844;9.726;2023-08-12T01:56:21;96332.63;;;16.47;100.00
54038;BME280;39954;48.844;9.726;2023-08-12T01:57:23;96336.19;;;16.46;100.00
54038;BME280;39954;48.844;9.726;2023-08-12T01:58:28;96331.19;;;16.43;100.00
54038;BME280;39954;48.844;9.726;2023-08-12T01:59:30;96332.13;;;16.42;100.00
54038;BME280;39954;48.844;9.726;2023-08-12T02:00:35;96329.75;;;16.39;100.00
54038;BME280;39954;48.844;9.726;2023-08-12T02:01:37;96333.31;;;16.38;100.00
54038;BME280;39954;48.844;9.726;2023-08-12T02:02:42;96324.75;;;16.36;100.00
54038;BME280;39954;48.844;9.726;2023-08-12T02:03:48;96329.25;;;16.33;100.00
54038;BME280;39954;48.844;9.726;2023-08-12T02:04:53;96324.94;;;16.32;100.00
54038;BME280;39954;48.844;9.726;2023-08-12T02:05:55;96331.16;;;16.31;100.00
54038;BME280;39954;48.844;9.726;2023-08-12T02:07:00;96327.72;;;16.31;100.00
54038;BME280;39954;48.844;9.726;2023-08-12T02:08:03;96327.13;;;16.27;100.00
54038;BME280;39954;48.844;9.726;2023-08-12T02:09:08;96321.13;;;16.25;100.00
54038;BME280;39954;48.844;9.726;2023-08-12T02:10:13;96322.06;;;16.24;100.00
54038;BME280;39954;48.844;9.726;2023-08-12T02:11:18;96327.53;;;16.21;100.00
54038;BME280;39954;48.844;9.726;2023-08-12T02:12:20;96322.53;;;16.18;100.00
54038;BME280;39954;48.844;9.726;2023-08-12T02:13:25;96320.88;;;16.17;100.00
54038;BME280;39954;48.844;9.726;2023-08-12T02:14:27;96325.41;;;16.15;100.00
54038;BME280;39954;48.844;9.726;2023-08-12T02:15:32;96317.53;;;16.15;100.00
54038;BME280;39954;48.844;9.726;2023-08-12T02:16:34;96314.19;;;16.13;100.00
54038;BME280;39954;48.844;9.726;2023-08-12T02:17:39;96311.69;;;16.11;100.00
54038;BME280;39954;48.844;9.726;2023-08-12T02:18:42;96316.09;;;16.11;100.00
54038;BME280;39954;48.844;9.726;2023-08-12T02:19:46;96316.09;;;16.11;100.00
54038;BME280;39954;48.844;9.726;2023-08-12T02:20:48;96314.41;;;16.10;100.00
54038;BME280;39954;48.844;9.726;2023-08-12T02:21:53;96318.81;;;16.09;100.00
54038;BME280;39954;48.844;9.726;2023-08-12T02:22:55;96311.94;;;16.08;100.00
54038;BME280;39954;48.844;9.726;2023-08-12T02:23:58;96313.72;;;16.08;100.00
54038;BME280;39954;48.844;9.726;2023-08-12T02:25:03;96310.38;;;16.06;100.00
54038;BME280;39954;48.844;9.726;2023-08-12T02:26:08;96310.47;;;16.04;100.00
54038;BME280;39954;48.844;9.726;2023-08-12T02:27:13;96315.84;;;16.03;100.00
54038;BME280;39954;48.844;9.726;2023-08-12T02:28:15;96311.53;;;16.02;100.00
54038;BME280;39954;48.844;9.726;2023-08-12T02:29:20;96313.31;;;16.01;100.00
54038;BME280;39954;48.844;9.726;2023-08-12T02:30:22;96313.47;;;16.00;100.00
54038;BME280;39954;48.844;9.726;2023-08-12T02:31:27;96313.56;;;15.98;100.00
54038;BME280;39954;48.844;9.726;2023-08-12T02:32:29;96318.81;;;15.98;100.00
54038;BME280;39954;48.844;9.726;2023-08-12T02:33:34;96313.69;;;15.97;100.00
54038;BME280;39954;48.844;9.726;2023-08-12T02:34:36;96319.84;;;15.96;100.00
54038;BME280;39954;48.844;9.726;2023-08-12T02:35:38;96314.63;;;15.96;100.00
54038;BME280;39954;48.844;9.726;2023-08-12T02:36:44;96315.56;;;15.95;100.00
54038;BME280;39954;48.844;9.726;2023-08-12T02:37:48;96316.41;;;15.95;100.00
54038;BME280;39954;48.844;9.726;2023-08-12T02:38:52;96308.69;;;15.94;100.00
54038;BME280;39954;48.844;9.726;2023-08-12T02:39:54;96310.34;;;15.95;100.00
54038;BME280;39954;48.844;9.726;2023-08-12T02:40:59;96316.41;;;15.95;100.00
54038;BME280;39954;48.844;9.726;2023-08-12T02:42:04;96314.63;;;15.96;100.00
54038;BME280;39954;48.844;9.726;2023-08-12T02:43:09;96316.19;;;15.98;100.00
54038;BME280;39954;48.844;9.726;2023-08-12T02:44:14;96313.47;;;16.00;100.00
54038;BME280;39954;48.844;9.726;2023-08-12T02:45:19;96312.41;;;16.02;100.00
54038;BME280;39954;48.844;9.726;2023-08-12T02:46:21;96315.59;;;16.06;100.00
54038;BME280;39954;48.844;9.726;2023-08-12T02:47:27;96312.75;;;16.09;100.00
54038;BME280;39954;48.844;9.726;2023-08-12T02:48:29;96318.59;;;16.13;100.00
54038;BME280;39954;48.844;9.726;2023-08-12T02:49:34;96313.00;;;16.17;100.00
54038;BME280;39954;48.844;9.726;2023-08-12T02:50:37;96313.50;;;16.22;100.00
54038;BME280;39954;48.844;9.726;2023-08-12T02:51:42;96317.69;;;16.25;100.00
54038;BME280;39954;48.844;9.726;2023-08-12T02:52:44;96310.41;;;16.28;100.00
54038;BME280;39954;48.844;9.726;2023-08-12T02:53:46;96311.97;;;16.31;100.00
54038;BME280;39954;48.844;9.726;2023-08-12T02:54:51;96305.66;;;16.33;100.00
54038;BME280;39954;48.844;9.726;2023-08-12T02:55:53;96298.38;;;16.37;100.00
54038;BME280;39954;48.844;9.726;2023-08-12T02:56:58;96305.19;;;16.40;100.00
54038;BME280;39954;48.844;9.726;2023-08-12T02:58:03;96304.13;;;16.42;100.00
54038;BME280;39954;48.844;9.726;2023-08-12T02:59:06;96304.72;;;16.46;100.00
54038;BME280;39954;48.844;9.726;2023-08-12T03:00:12;96306.25;;;16.48;100.00
54038;BME280;39954;48.844;9.726;2023-08-12T03:01:15;96307.81;;;16.51;100.00
54038;BME280;39954;48.844;9.726;2023-08-12T03:02:20;96302.56;;;16.51;100.00
54038;BME280;39954;48.844;9.726;2023-08-12T03:03:23;96305.91;;;16.53;100.00
54038;BME280;39954;48.844;9.726;2023-08-12T03:04:28;96304.94;;;16.54;100.00
54038;BME280;39954;48.844;9.726;2023-08-12T03:05:31;96301.38;;;16.55;100.00
54038;BME280;39954;48.844;9.726;2023-08-12T03:06:36;96302.22;;;16.55;100.00
54038;BME280;39954;48.844;9.726;2023-08-12T03:07:39;96297.81;;;16.56;100.00
54038;BME280;39954;48.844;9.726;2023-08-12T03:08:43;96293.38;;;16.56;100.00
54038;BME280;39954;48.844;9.726;2023-08-12T03:09:46;96296.84;;;16.57;100.00
54038;BME280;39954;48.844;9.726;2023-08-12T03:10:50;96290.66;;;16.58;100.00
54038;BME280;39954;48.844;9.726;2023-08-12T03:11:59;96293.97;;;16.60;100.00
54038;BME280;39954;48.844;9.726;2023-08-12T03:13:07;96293.88;;;16.62;100.00
54038;BME280;39954;48.844;9.726;2023-08-12T03:14:10;96289.47;;;16.62;100.00
54038;BME280;39954;48.844;9.726;2023-08-12T03:15:14;96290.28;;;16.63;100.00
54038;BME280;39954;48.844;9.726;2023-08-12T03:16:17;96295.44;;;16.64;100.00
54038;BME280;39954;48.844;9.726;2023-08-12T03:17:21;96296.97;;;16.67;100.00
54038;BME280;39954;48.844;9.726;2023-08-12T03:18:24;96285.41;;;16.69;100.00
54038;BME280;39954;48.844;9.726;2023-08-12T03:19:29;96292.06;;;16.73;100.00
54038;BME280;39954;48.844;9.726;2023-08-12T03:20:31;96285.53;;;16.79;100.00
54038;BME280;39954;48.844;9.726;2023-08-12T03:21:36;96284.47;;;16.82;100.00
54038;BME280;39954;48.844;9.726;2023-08-12T03:22:38;96284.13;;;16.86;100.00
54038;BME280;39954;48.844;9.726;2023-08-12T03:23:43;96286.50;;;16.89;100.00
54038;BME280;39954;48.844;9.726;2023-08-12T03:24:45;96286.25;;;16.92;100.00
54038;BME280;39954;48.844;9.726;2023-08-12T03:25:50;96285.19;;;16.95;100.00
54038;BME280;39954;48.844;9.726;2023-08-12T03:26:52;96279.44;;;17.01;100.00
54038;BME280;39954;48.844;9.726;2023-08-12T03:27:57;96283.84;;;17.00;100.00
54038;BME280;39954;48.844;9.726;2023-08-12T03:29:02;96286.25;;;17.04;100.00
54038;BME280;39954;48.844;9.726;2023-08-12T03:30:08;96282.53;;;17.06;100.00
54038;BME280;39954;48.844;9.726;2023-08-12T03:31:10;96281.56;;;17.07;100.00
54038;BME280;39954;48.844;9.726;2023-08-12T03:32:15;96282.28;;;17.09;100.00
54038;BME280;39954;48.844;9.726;2023-08-12T03:33:17;96286.47;;;17.12;100.00
54038;BME280;39954;48.844;9.726;2023-08-12T03:34:22;96283.69;;;17.13;100.00
54038;BME280;39954;48.844;9.726;2023-08-12T03:35:24;96286.94;;;17.17;100.00
54038;BME280;39954;48.844;9.726;2023-08-12T03:36:29;96282.50;;;17.17;100.00
54038;BME280;39954;48.844;9.726;2023-08-12T03:37:31;96275.09;;;17.22;100.00
54038;BME280;39954;48.844;9.726;2023-08-12T03:38:36;96282.72;;;17.26;100.00
54038;BME280;39954;48.844;9.726;2023-08-12T03:39:38;96268.63;;;17.27;100.00
54038;BME280;39954;48.844;9.726;2023-08-12T03:40:43;96274.72;;;17.27;100.00
54038;BME280;39954;48.844;9.726;2023-08-12T03:41:45;96274.47;;;17.30;100.00
54038;BME280;39954;48.844;9.726;2023-08-12T03:42:52;96276.16;;;17.31;100.00
54038;BME280;39954;48.844;9.726;2023-08-12T03:43:55;96271.72;;;17.32;100.00
54038;BME280;39954;48.844;9.726;2023-08-12T03:45:03;96269.09;;;17.32;100.00
54038;BME280;39954;48.844;9.726;2023-08-12T03:46:05;96265.66;;;17.31;100.00
54038;BME280;39954;48.844;9.726;2023-08-12T03:47:10;96271.72;;;17.32;100.00
54038;BME280;39954;48.844;9.726;2023-08-12T03:48:13;96270.03;;;17.31;100.00
54038;BME280;39954;48.844;9.726;2023-08-12T03:49:17;96276.25;;;17.30;100.00
54038;BME280;39954;48.844;9.726;2023-08-12T03:50:23;96273.63;;;17.30;100.00
54038;BME280;39954;48.844;9.726;2023-08-12T03:51:27;96266.72;;;17.29;100.00
54038;BME280;39954;48.844;9.726;2023-08-12T03:52:30;96265.75;;;17.30;100.00
54038;BME280;39954;48.844;9.726;2023-08-12T03:53:34;96269.22;;;17.30;100.00
54038;BME280;39954;48.844;9.726;2023-08-12T03:54:37;96272.81;;;17.29;100.00
54038;BME280;39954;48.844;9.726;2023-08-12T03:55:41;96266.59;;;17.30;100.00
54038;BME280;39954;48.844;9.726;2023-08-12T03:56:44;96273.63;;;17.30;100.00
54038;BME280;39954;48.844;9.726;2023-08-12T03:57:48;96268.38;;;17.30;100.00
54038;BME280;39954;48.844;9.726;2023-08-12T03:58:51;96266.59;;;17.30;100.00
54038;BME280;39954;48.844;9.726;2023-08-12T03:59:56;96266.47;;;17.32;100.00
54038;BME280;39954;48.844;9.726;2023-08-12T04:01:00;96263.72;;;17.33;100.00
54038;BME280;39954;48.844;9.726;2023-08-12T04:02:05;96258.34;;;17.35;100.00
54038;BME280;39954;48.844;9.726;2023-08-12T04:03:08;96267.78;;;17.37;100.00
54038;BME280;39954;48.844;9.726;2023-08-12T04:04:13;96265.16;;;17.37;100.00
54038;BME280;39954;48.844;9.726;2023-08-12T04:05:15;96264.88;;;17.40;100.00
54038;BME280;39954;48.844;9.726;2023-08-12T04:06:20;96267.16;;;17.45;100.00
54038;BME280;39954;48.844;9.726;2023-08-12T04:07:22;96261.66;;;17.48;100.00
54038;BME280;39954;48.844;9.726;2023-08-12T04:08:28;96261.41;;;17.51;100.00
54038;BME280;39954;48.844;9.726;2023-08-12T04:09:31;96265.56;;;17.54;100.00
54038;BME280;39954;48.844;9.726;2023-08-12T04:10:35;96270.44;;;17.58;100.00
54038;BME280;39954;48.844;9.726;2023-08-12T04:11:37;96259.56;;;17.63;100.00
54038;BME280;39954;48.844;9.726;2023-08-12T04:12:43;96259.28;;;17.66;100.00
54038;BME280;39954;48.844;9.726;2023-08-12T04:13:45;96259.75;;;17.71;100.00
54038;BME280;39954;48.844;9.726;2023-08-12T04:14:50;96259.38;;;17.76;100.00
54038;BME280;39954;48.844;9.726;2023-08-12T04:15:52;96259.16;;;17.79;100.00
54038;BME280;39954;48.844;9.726;2023-08-12T04:17:00;96253.66;;;17.82;100.00
54038;BME280;39954;48.844;9.726;2023-08-12T04:18:03;96261.97;;;17.87;100.00
54038;BME280;39954;48.844;9.726;2023-08-12T04:19:07;96259.09;;;17.90;100.00
54038;BME280;39954;48.844;9.726;2023-08-12T04:20:10;96257.88;;;17.94;100.00
54038;BME280;39954;48.844;9.726;2023-08-12T04:21:15;96259.28;;;17.98;100.00
54038;BME280;39954;48.844;9.726;2023-08-12T04:22:17;96257.34;;;18.00;100.00
54038;BME280;39954;48.844;9.726;2023-08-12T04:23:22;96251.59;;;18.06;100.00
54038;BME280;39954;48.844;9.726;2023-08-12T04:24:24;96249.66;;;18.08;100.00
54038;BME280;39954;48.844;9.726;2023-08-12T04:25:29;96257.16;;;18.13;100.00
54038;BME280;39954;48.844;9.726;2023-08-12T04:26:31;96253.28;;;18.17;100.00
54038;BME280;39954;48.844;9.726;2023-08-12T04:27:36;96253.03;;;18.20;100.00
54038;BME280;39954;48.844;9.726;2023-08-12T04:28:38;96255.44;;;18.23;100.00
54038;BME280;39954;48.844;9.726;2023-08-12T04:29:43;96250.72;;;18.27;100.00
54038;BME280;39954;48.844;9.726;2023-08-12T04:30:47;96258.34;;;18.30;100.00
54038;BME280;39954;48.844;9.726;2023-08-12T04:31:52;96257.28;;;18.32;100.00
54038;BME280;39954;48.844;9.726;2023-08-12T04:32:57;96253.53;;;18.35;100.00
54038;BME280;39954;48.844;9.726;2023-08-12T04:34:02;96254.22;;;18.37;100.00
54038;BME280;39954;48.844;9.726;2023-08-12T04:35:06;96255.75;;;18.40;100.00
54038;BME280;39954;48.844;9.726;2023-08-12T04:36:11;96250.38;;;18.41;100.00
54038;BME280;39954;48.844;9.726;2023-08-12T04:37:14;96249.28;;;18.44;100.00
54038;BME280;39954;48.844;9.726;2023-08-12T04:38:19;96251.78;;;18.45;100.00
54038;BME280;39954;48.844;9.726;2023-08-12T04:39:21;96248.03;;;18.48;100.00
54038;BME280;39954;48.844;9.726;2023-08-12T04:40:27;96258.47;;;18.49;100.00
54038;BME280;39954;48.844;9.726;2023-08-12T04:41:29;96245.16;;;18.51;100.00
54038;BME280;39954;48.844;9.726;2023-08-12T04:42:32;96252.94;;;18.52;100.00
54038;BME280;39954;48.844;9.726;2023-08-12T04:43:36;96257.09;;;18.55;100.00
54038;BME280;39954;48.844;9.726;2023-08-12T04:44:39;96255.19;;;18.57;100.00
54038;BME280;39954;48.844;9.726;2023-08-12T04:45:45;96257.66;;;18.59;100.00
54038;BME280;39954;48.844;9.726;2023-08-12T04:46:47;96254.03;;;18.60;100.00
54038;BME280;39954;48.844;9.726;2023-08-12T04:47:52;96251.28;;;18.61;100.00
54038;BME280;39954;48.844;9.726;2023-08-12T04:48:57;96259.91;;;18.63;100.00
54038;BME280;39954;48.844;9.726;2023-08-12T04:50:02;96255.34;;;18.65;100.00
54038;BME280;39954;48.844;9.726;2023-08-12T04:51:05;96251.84;;;18.65;100.00
54038;BME280;39954;48.844;9.726;2023-08-12T04:52:09;96266.56;;;18.67;100.00
54038;BME280;39954;48.844;9.726;2023-08-12T04:53:12;96259.47;;;18.68;100.00
54038;BME280;39954;48.844;9.726;2023-08-12T04:54:17;96253.28;;;18.69;100.00
54038;BME280;39954;48.844;9.726;2023-08-12T04:55:19;96263.81;;;18.69;100.00
54038;BME280;39954;48.844;9.726;2023-08-12T04:56:22;96257.44;;;18.71;100.00
54038;BME280;39954;48.844;9.726;2023-08-12T04:57:27;96258.28;;;18.72;100.00
54038;BME280;39954;48.844;9.726;2023-08-12T04:58:29;96259.94;;;18.73;100.00
54038;BME280;39954;48.844;9.726;2023-08-12T04:59:34;96257.06;;;18.76;100.00
54038;BME280;39954;48.844;9.726;2023-08-12T05:00:36;96262.19;;;18.77;100.00
54038;BME280;39954;48.844;9.726;2023-08-12T05:01:41;96263.03;;;18.78;100.00
54038;BME280;39954;48.844;9.726;2023-08-12T05:02:59;96259.41;;;18.79;100.00
54038;BME280;39954;48.844;9.726;2023-08-12T05:04:07;96262.75;;;18.81;100.00
54038;BME280;39954;48.844;9.726;2023-08-12T05:05:09;96255.84;;;18.80;100.00
54038;BME280;39954;48.844;9.726;2023-08-12T05:06:14;96254.84;;;18.81;100.00
54038;BME280;39954;48.844;9.726;2023-08-12T05:07:17;96264.44;;;18.82;100.00
54038;BME280;39954;48.844;9.726;2023-08-12T05:08:19;96262.75;;;18.81;100.00
54038;BME280;39954;48.844;9.726;2023-08-12T05:09:24;96269.00;;;18.80;100.00
54038;BME280;39954;48.844;9.726;2023-08-12T05:10:26;96270.81;;;18.80;100.00
54038;BME280;39954;48.844;9.726;2023-08-12T05:11:31;96280.47;;;18.79;100.00
54038;BME280;39954;48.844;9.726;2023-08-12T05:12:33;96272.56;;;18.79;100.00
54038;BME280;39954;48.844;9.726;2023-08-12T05:13:38;96272.56;;;18.79;100.00
54038;BME280;39954;48.844;9.726;2023-08-12T05:14:40;96274.13;;;18.82;100.00
54038;BME280;39954;48.844;9.726;2023-08-12T05:15:45;96276.47;;;18.85;100.00
54038;BME280;39954;48.844;9.726;2023-08-12T05:16:48;96273.84;;;18.85;100.00
54038;BME280;39954;48.844;9.726;2023-08-12T05:17:53;96269.16;;;18.88;100.00
54038;BME280;39954;48.844;9.726;2023-08-12T05:18:55;96268.06;;;18.91;100.00
54038;BME280;39954;48.844;9.726;2023-08-12T05:20:03;96274.72;;;18.95;100.00
54038;BME280;39954;48.844;9.726;2023-08-12T05:21:06;96279.72;;;18.98;100.00
54038;BME280;39954;48.844;9.726;2023-08-12T05:22:11;96281.13;;;19.02;100.00
54038;BME280;39954;48.844;9.726;2023-08-12T05:23:13;96275.59;;;19.05;100.00
54038;BME280;39954;48.844;9.726;2023-08-12T05:24:18;96272.81;;;19.07;100.00
54038;BME280;39954;48.844;9.726;2023-08-12T05:25:20;96271.59;;;19.11;100.00
54038;BME280;39954;48.844;9.726;2023-08-12T05:26:25;96276.56;;;19.14;100.00
54038;BME280;39954;48.844;9.726;2023-08-12T05:27:27;96278.94;;;19.17;100.00
54038;BME280;39954;48.844;9.726;2023-08-12T05:28:32;96268.13;;;19.20;100.00
54038;BME280;39954;48.844;9.726;2023-08-12T05:29:34;96276.59;;;19.23;100.00
54038;BME280;39954;48.844;9.726;2023-08-12T05:30:39;96276.19;;;19.28;100.00
54038;BME280;39954;48.844;9.726;2023-08-12T05:31:41;96277.56;;;19.32;100.00
54038;BME280;39954;48.844;9.726;2023-08-12T05:32:46;96275.34;;;19.37;100.00
54038;BME280;39954;48.844;9.726;2023-08-12T05:33:49;96271.50;;;19.41;100.00
54038;BME280;39954;48.844;9.726;2023-08-12T05:34:55;96280.94;;;19.44;100.00
54038;BME280;39954;48.844;9.726;2023-08-12T05:36:00;96285.94;;;19.47;100.00